Carpentersville, IL (60110)

8:44 PM CST en Enero 16, 2017 (GMT -0600)
Cville WWTF | | Change Station
Aviso en curso: Marine Fog Advisory

Alt 748 ft 42.11 °N, 88.28 °W | Updated 11 minutes ago

Lluvia
Lluvia
37.1 ° F
Sensación térmica 37 ° F
N
0.0
Viento Variable Viento desde NE
Gusts 4.0 mph

Hoy
Alta -- | Baja -- ° F
--% Posibilidad de precipitaciones
Ayer
Alta -- | Baja -- ° F
Precip. -- pul
Presión 29.98 pul
Visibilidad 5.0 Millas
Nubes Nublado 400 ft
Vientos helados 37 ° F
Punto de rocío 37 ° F
Humedad 98%
Precipitaciones 0.58 pul
Espesor de la nieve No disponible.
7:18 AM 4:47 PM
Gibosa menguante, 76% visible
METAR KDPA 170152Z 02005KT 5SM -RA BR OVC004 03/02 A2996 RMK AO2 SLP151 P0010 T00280017
Presión 29.98 pul
Visibilidad 5.0 Millas
Nubes Nublado 400 ft
Vientos helados 37 ° F
Punto de rocío 37 ° F
Humedad 98%
Precipitaciones 0.58 pul
Espesor de la nieve No disponible.
7:18 AM 4:47 PM
Gibosa menguante, 76% visible
METAR KDPA 170152Z 02005KT 5SM -RA BR OVC004 03/02 A2996 RMK AO2 SLP151 P0010 T00280017

Get Your Daily Forecast Email!

Thanks for signing up!

Be on the lookout for a verification email in your inbox.

You'll start receiving the daily forecast at 8 AM.

×

10-Day Weather Forecast

Almanac

Astronomía

Jan. 16, 2017 Salida Puesta
Hora real
Crepúsculo civil
Crepúsculo náutico
Crepúsculo astronómico
Luna
Horas de luz
Horas de luz
Tomorrow will be .
, % of the Moon is Illuminated

Extremos de hoy

Máximos del estado Bajos del estado

Community

WunderPhotos

Upload Photos

1,962,540 ¡fotos cargadas!

WunderBlog® & News

Nearby

Calidad del aire

  Calidad del aire Índice AQ Contaminante
Not available.

Grosos de nieve

Estación Profundido Altura

Actividad de terremotos

Ciudad Distance Mag. Tiempo y dato
Magnitud mínima muestra es 2,5.

Temperaturas de aguas costeras

Lugar Temperatura

Stations

Estaciones meteorológicas cercanas

Ubicación de la estación Temp. Vientos helados Punto de rocío Humedad Viento Precip. Alt Actualizado Tipo
                   

Watches & Warnings

Marine Fog Advisory
Issued: 2:52 PM CST Jan. 16, 2017 – National Weather Service

... Dense fog advisory in effect until 9 am CST Tuesday...

The National Weather Service in Chicago has issued a dense fog
advisory... which is in effect until 9 am CST Tuesday.

* Visibility... less than 1/2 mile.

Precautionary/preparedness actions...

A dense fog advisory means visibilities will frequently be
reduced to less than one mile. Inexperienced mariners...
especially those operating smaller vessels should avoid
navigating in these conditions.




Jee